createdAt,value
2022-10-13T00:00:39.001Z,77.50
2022-10-13T00:03:05.918Z,77.50
2022-10-13T00:05:32.601Z,77.50
2022-10-13T00:07:59.627Z,77.60
2022-10-13T00:10:26.810Z,77.60
2022-10-13T00:12:53.581Z,77.60
2022-10-13T00:15:20.432Z,77.70
2022-10-13T00:17:47.134Z,77.80
2022-10-13T00:20:14.018Z,77.80
2022-10-13T00:22:40.696Z,77.80
2022-10-13T00:25:07.731Z,77.90
2022-10-13T00:27:34.371Z,77.90
2022-10-13T00:30:01.064Z,77.90
2022-10-13T00:32:27.786Z,77.90
2022-10-13T00:34:54.448Z,77.90
2022-10-13T00:37:21.102Z,77.90
2022-10-13T00:39:47.864Z,78.00
2022-10-13T00:42:14.547Z,78.00
2022-10-13T00:45:07.729Z,78.00
2022-10-13T00:47:41.446Z,77.90
2022-10-13T00:50:12.240Z,78.20
2022-10-13T00:52:41.400Z,78.20
2022-10-13T00:55:09.730Z,79.00
2022-10-13T00:57:40.094Z,78.20
2022-10-13T01:00:07.055Z,78.20
2022-10-13T01:02:38.127Z,78.50
2022-10-13T01:05:07.005Z,78.40
2022-10-13T01:07:35.235Z,78.30
2022-10-13T01:10:03.272Z,78.30
2022-10-13T01:12:32.964Z,78.30
2022-10-13T01:15:26.078Z,78.30
2022-10-13T01:18:33.763Z,78.40
2022-10-13T01:21:15.773Z,78.40
2022-10-13T01:23:58.741Z,79.10
2022-10-13T01:26:34.345Z,78.50
2022-10-13T01:29:38.898Z,78.50
2022-10-13T01:32:14.750Z,78.50
2022-10-13T01:34:50.329Z,78.70
2022-10-13T01:37:28.390Z,78.60
2022-10-13T01:40:03.270Z,78.60
2022-10-13T01:42:43.944Z,78.70
2022-10-13T01:45:12.365Z,78.60
2022-10-13T01:47:39.484Z,78.80
2022-10-13T01:50:07.377Z,78.80
2022-10-13T01:52:37.874Z,79.60
2022-10-13T01:55:10.687Z,78.80
2022-10-13T01:57:39.558Z,78.90
2022-10-13T02:00:12.154Z,78.90
2022-10-13T02:02:45.853Z,78.90
2022-10-13T02:05:24.686Z,79.00
2022-10-13T02:07:59.930Z,79.00
2022-10-13T02:11:01.163Z,79.10
2022-10-13T02:13:31.146Z,79.10
2022-10-13T02:16:00.413Z,79.10
2022-10-13T02:18:32.033Z,79.20
2022-10-13T02:21:00.582Z,79.40
2022-10-13T02:23:28.296Z,79.40
2022-10-13T02:25:57.444Z,79.40
2022-10-13T02:28:24.759Z,79.40
2022-10-13T02:30:51.774Z,79.40
2022-10-13T02:33:19.037Z,79.40
2022-10-13T02:35:45.728Z,79.40
2022-10-13T02:38:12.425Z,79.40
2022-10-13T02:40:39.057Z,79.40
2022-10-13T02:43:05.945Z,79.40
2022-10-13T02:45:32.628Z,79.40
2022-10-13T02:47:59.301Z,79.40
2022-10-13T02:50:26.236Z,79.40
2022-10-13T02:52:52.965Z,79.50
2022-10-13T02:55:19.643Z,80.30
2022-10-13T02:57:46.381Z,79.50
2022-10-13T03:00:14.306Z,79.70
2022-10-13T03:02:41.062Z,80.20
2022-10-13T03:05:08.527Z,80.70
2022-10-13T03:07:35.425Z,80.80
2022-10-13T03:10:02.246Z,80.80
2022-10-13T03:12:28.946Z,80.80
2022-10-13T03:14:55.618Z,80.80
2022-10-13T03:17:23.100Z,81.00
2022-10-13T03:19:50.051Z,81.20
2022-10-13T03:22:17.211Z,81.30
2022-10-13T03:24:44.278Z,81.60
2022-10-13T03:27:11.118Z,81.70
2022-10-13T03:29:37.781Z,81.70
2022-10-13T03:32:04.602Z,81.70
2022-10-13T03:34:31.319Z,81.70
2022-10-13T03:36:58.010Z,81.70
2022-10-13T03:39:24.909Z,81.70
2022-10-13T03:41:51.545Z,81.60
2022-10-13T03:44:18.218Z,81.50
2022-10-13T03:46:44.963Z,81.40
2022-10-13T03:49:12.318Z,81.50
2022-10-13T03:51:39.334Z,81.60
2022-10-13T03:54:06.045Z,81.60
2022-10-13T03:56:32.832Z,81.50
2022-10-13T03:59:00.401Z,81.50
2022-10-13T04:01:29.078Z,81.50
2022-10-13T04:03:56.713Z,81.50
2022-10-13T04:06:24.738Z,81.50
2022-10-13T04:08:52.023Z,81.50
2022-10-13T04:11:19.818Z,81.60
2022-10-13T04:13:46.516Z,81.70
2022-10-13T04:16:15.480Z,81.70
2022-10-13T04:18:44.846Z,81.70
2022-10-13T04:21:14.733Z,81.60
2022-10-13T04:23:41.708Z,81.60
2022-10-13T04:26:17.018Z,81.60
2022-10-13T04:28:44.199Z,81.50
2022-10-13T04:31:11.048Z,81.40
2022-10-13T04:33:37.817Z,81.40
2022-10-13T04:36:09.435Z,81.40
2022-10-13T04:38:36.193Z,81.40
2022-10-13T04:41:04.510Z,81.40
2022-10-13T04:43:32.281Z,81.30
2022-10-13T04:46:13.382Z,81.30
2022-10-13T04:48:40.622Z,81.20
2022-10-13T04:51:10.477Z,81.10
2022-10-13T04:53:37.725Z,81.30
2022-10-13T04:56:08.428Z,81.40
2022-10-13T04:58:36.432Z,81.40
2022-10-13T05:01:05.007Z,81.40
2022-10-13T05:03:32.778Z,81.40
2022-10-13T05:05:59.687Z,81.30
2022-10-13T05:08:26.498Z,81.30
2022-10-13T05:10:58.180Z,81.30
2022-10-13T05:13:26.356Z,81.50
2022-10-13T05:15:53.213Z,81.60
2022-10-13T05:18:19.933Z,81.50
2022-10-13T05:20:46.801Z,81.70
2022-10-13T05:23:14.841Z,81.70
2022-10-13T05:25:41.790Z,81.80
2022-10-13T05:28:08.890Z,81.90
2022-10-13T05:30:35.736Z,81.80
2022-10-13T05:33:02.628Z,81.80
2022-10-13T05:35:29.493Z,82.70
2022-10-13T05:37:56.161Z,81.80
2022-10-13T05:40:22.905Z,81.80
2022-10-13T05:42:50.824Z,81.80
2022-10-13T05:45:19.567Z,81.80
2022-10-13T05:47:46.276Z,81.90
2022-10-13T05:50:13.097Z,82.20
2022-10-13T05:52:40.289Z,82.60
2022-10-13T05:55:09.672Z,82.70
2022-10-13T05:57:41.016Z,82.80
2022-10-13T06:00:16.176Z,84.10
2022-10-13T06:02:52.236Z,83.20
2022-10-13T06:05:21.597Z,83.20
2022-10-13T06:07:48.511Z,83.20
2022-10-13T06:10:15.857Z,83.30
2022-10-13T06:12:42.578Z,83.20
2022-10-13T06:15:09.735Z,83.20
2022-10-13T06:17:38.320Z,83.40
2022-10-13T06:20:06.252Z,83.60
2022-10-13T06:22:36.767Z,83.50
2022-10-13T06:25:04.886Z,83.50
2022-10-13T06:27:31.929Z,83.50
2022-10-13T06:29:58.744Z,83.40
2022-10-13T06:32:25.460Z,83.40
2022-10-13T06:34:52.193Z,83.30
2022-10-13T06:37:21.236Z,83.30
2022-10-13T06:39:51.514Z,83.50
2022-10-13T06:42:18.817Z,83.60
2022-10-13T06:44:45.804Z,83.80
2022-10-13T06:47:12.481Z,83.90
2022-10-13T06:49:39.177Z,84.10
2022-10-13T06:52:05.999Z,84.20
2022-10-13T06:54:32.764Z,84.20
2022-10-13T06:56:59.436Z,84.30
2022-10-13T06:59:27.721Z,84.20
2022-10-13T07:01:54.594Z,84.20
2022-10-13T07:04:21.414Z,84.20
2022-10-13T07:06:48.113Z,84.20
2022-10-13T07:09:14.874Z,84.30
2022-10-13T07:11:45.401Z,84.50
2022-10-13T07:14:12.847Z,84.90
2022-10-13T07:16:39.876Z,84.70
2022-10-13T07:19:06.524Z,84.60
2022-10-13T07:21:33.253Z,84.70
2022-10-13T07:24:01.381Z,84.90
2022-10-13T07:26:28.119Z,85.10
2022-10-13T07:28:54.932Z,85.20
2022-10-13T07:31:21.891Z,86.00
2022-10-13T07:33:50.269Z,85.10
2022-10-13T07:36:17.879Z,85.30
2022-10-13T07:38:45.024Z,85.40
2022-10-13T07:41:13.271Z,85.50
2022-10-13T07:43:40.133Z,85.70
2022-10-13T07:46:07.710Z,85.80
2022-10-13T07:48:35.476Z,85.80
2022-10-13T07:51:13.267Z,85.80
2022-10-13T07:53:41.776Z,85.80
2022-10-13T07:56:11.608Z,85.90
2022-10-13T07:58:40.003Z,85.90
2022-10-13T08:01:07.398Z,86.00
2022-10-13T08:03:34.385Z,86.20
2022-10-13T08:06:04.155Z,86.10
2022-10-13T08:08:31.266Z,86.10
2022-10-13T08:11:03.940Z,86.20
2022-10-13T08:13:30.806Z,86.30
2022-10-13T08:16:01.023Z,86.30
2022-10-13T08:18:27.935Z,86.20
2022-10-13T08:21:04.256Z,86.40
2022-10-13T08:23:37.453Z,86.40
2022-10-13T08:26:04.266Z,86.50
2022-10-13T08:28:31.016Z,86.40
2022-10-13T08:30:57.974Z,86.30
2022-10-13T08:33:26.098Z,86.40
2022-10-13T08:35:53.717Z,86.40
2022-10-13T08:38:20.518Z,86.30
2022-10-13T08:40:51.289Z,86.30
2022-10-13T08:43:21.162Z,86.20
2022-10-13T08:45:55.730Z,86.20
2022-10-13T08:48:25.851Z,86.20
2022-10-13T08:50:59.372Z,86.00
2022-10-13T08:53:33.460Z,86.00
2022-10-13T08:56:18.902Z,85.90
2022-10-13T08:58:46.295Z,85.90
2022-10-13T09:01:16.664Z,85.80
2022-10-13T09:03:52.458Z,85.80
2022-10-13T09:06:37.866Z,85.90
2022-10-13T09:09:14.300Z,85.70
2022-10-13T09:11:44.615Z,85.70
2022-10-13T09:14:13.065Z,85.70
2022-10-13T09:16:42.781Z,85.80
2022-10-13T09:19:36.447Z,85.50
2022-10-13T09:22:24.062Z,85.40
2022-10-13T09:25:09.233Z,85.30
2022-10-13T09:27:47.471Z,85.20
2022-10-13T09:30:37.032Z,85.30
2022-10-13T09:33:09.572Z,85.20
2022-10-13T09:35:37.754Z,85.20
2022-10-13T09:38:17.127Z,85.20
2022-10-13T09:40:55.709Z,85.10
2022-10-13T09:43:28.638Z,85.10
2022-10-13T09:45:56.205Z,85.00
2022-10-13T09:48:29.648Z,84.90
2022-10-13T09:50:57.927Z,84.90
2022-10-13T09:53:51.037Z,84.70
2022-10-13T09:56:20.658Z,84.50
2022-10-13T09:59:07.682Z,84.60
2022-10-13T10:01:40.279Z,84.60
2022-10-13T10:04:29.825Z,84.40
2022-10-13T10:06:56.591Z,84.30
2022-10-13T10:09:52.897Z,84.10
2022-10-13T10:12:27.691Z,83.70
2022-10-13T10:14:55.145Z,83.60
2022-10-13T10:17:47.463Z,83.50
2022-10-13T10:20:41.693Z,83.30
2022-10-13T10:23:36.961Z,83.00
2022-10-13T10:26:25.014Z,83.10
2022-10-13T10:29:17.411Z,82.70
2022-10-13T10:31:50.963Z,82.70
2022-10-13T10:34:28.878Z,82.70
2022-10-13T10:37:33.163Z,82.40
2022-10-13T10:40:32.623Z,82.30
2022-10-13T10:43:02.316Z,82.30
2022-10-13T10:45:35.677Z,82.00
2022-10-13T10:48:25.277Z,81.70
2022-10-13T10:50:53.092Z,81.50
2022-10-13T10:53:31.624Z,81.50
2022-10-13T10:56:13.320Z,81.50
2022-10-13T10:58:55.021Z,81.30
2022-10-13T11:01:28.220Z,81.20
2022-10-13T11:03:57.977Z,81.00
2022-10-13T11:06:33.884Z,80.90
2022-10-13T11:09:01.283Z,81.00
2022-10-13T11:11:37.448Z,81.20
2022-10-13T11:14:07.722Z,81.00
2022-10-13T11:17:00.832Z,81.00
2022-10-13T11:19:32.025Z,81.10
2022-10-13T11:21:58.725Z,81.20
2022-10-13T11:24:34.419Z,81.10
2022-10-13T11:27:16.746Z,80.80
2022-10-13T11:29:51.655Z,80.80
2022-10-13T11:32:30.425Z,80.70
2022-10-13T11:35:06.079Z,80.40
2022-10-13T11:37:41.834Z,80.40
2022-10-13T11:40:25.280Z,80.40
2022-10-13T11:43:08.426Z,80.20
2022-10-13T11:46:04.613Z,80.20
2022-10-13T11:48:50.156Z,80.20
2022-10-13T11:51:29.069Z,80.30
2022-10-13T11:54:19.217Z,80.20
2022-10-13T11:56:48.800Z,80.20
2022-10-13T11:59:28.053Z,80.40
2022-10-13T12:02:10.538Z,80.20
2022-10-13T12:04:41.549Z,80.30
2022-10-13T12:07:13.380Z,80.20
2022-10-13T12:09:54.669Z,80.30
2022-10-13T12:12:22.822Z,80.20
2022-10-13T12:14:55.570Z,80.20
2022-10-13T12:17:28.448Z,80.20
2022-10-13T12:20:01.014Z,80.10
2022-10-13T12:22:31.342Z,80.20
2022-10-13T12:24:58.558Z,80.30
2022-10-13T12:27:25.534Z,80.40
2022-10-13T12:29:52.274Z,81.40
2022-10-13T12:32:28.181Z,80.50
2022-10-13T12:34:54.979Z,80.40
2022-10-13T12:37:30.995Z,80.40
2022-10-13T12:39:59.331Z,80.40
2022-10-13T12:42:34.961Z,80.50
2022-10-13T12:45:02.879Z,80.50
2022-10-13T12:47:49.429Z,80.60
2022-10-13T12:50:25.017Z,80.60
2022-10-13T12:53:09.712Z,80.80
2022-10-13T12:55:45.290Z,80.70
2022-10-13T12:58:21.725Z,80.80
2022-10-13T13:01:10.360Z,80.70
2022-10-13T13:03:38.754Z,80.70
2022-10-13T13:06:11.421Z,80.70
2022-10-13T13:08:38.366Z,80.70
2022-10-13T13:11:32.622Z,80.70
2022-10-13T13:14:34.198Z,80.70
2022-10-13T13:17:10.067Z,80.80
2022-10-13T13:19:37.626Z,80.90
2022-10-13T13:22:06.044Z,80.90
2022-10-13T13:24:40.156Z,81.00
2022-10-13T13:27:21.616Z,81.10
2022-10-13T13:29:48.432Z,81.40
2022-10-13T13:32:20.117Z,81.50
2022-10-13T13:34:47.616Z,81.60
2022-10-13T13:37:23.105Z,81.70
2022-10-13T13:39:50.266Z,81.80
2022-10-13T13:42:17.015Z,81.90
2022-10-13T13:44:43.945Z,81.70
2022-10-13T13:47:29.033Z,81.60
2022-10-13T13:49:57.242Z,81.50
2022-10-13T13:52:25.457Z,81.50
2022-10-13T13:54:52.793Z,81.40
2022-10-13T13:57:20.438Z,81.40
2022-10-13T13:59:47.450Z,81.40
2022-10-13T14:02:17.826Z,81.40
2022-10-13T14:04:44.522Z,81.40
2022-10-13T14:07:11.508Z,81.20
2022-10-13T14:09:38.243Z,81.10
2022-10-13T14:12:05.224Z,81.10
2022-10-13T14:14:32.948Z,81.10
2022-10-13T14:17:01.048Z,81.10
2022-10-13T14:19:27.824Z,81.00
2022-10-13T14:21:54.558Z,81.10
2022-10-13T14:24:21.634Z,80.90
2022-10-13T14:26:48.640Z,80.90
2022-10-13T14:29:16.150Z,80.80
2022-10-13T14:31:43.044Z,80.70
2022-10-13T14:34:10.047Z,80.70
2022-10-13T14:36:36.783Z,80.60
2022-10-13T14:39:03.676Z,80.60
2022-10-13T14:41:30.414Z,80.60
2022-10-13T14:43:57.591Z,80.70
2022-10-13T14:46:25.373Z,80.70
2022-10-13T14:48:52.174Z,80.70
2022-10-13T14:51:19.037Z,80.60
2022-10-13T14:53:46.288Z,80.60
2022-10-13T14:56:24.698Z,80.60
2022-10-13T14:58:53.481Z,80.60
2022-10-13T15:01:20.583Z,80.70
2022-10-13T15:03:47.543Z,80.70
2022-10-13T15:06:16.149Z,80.70
2022-10-13T15:08:43.987Z,80.70
2022-10-13T15:11:11.132Z,80.80
2022-10-13T15:13:38.833Z,80.80
2022-10-13T15:16:07.181Z,80.80
2022-10-13T15:18:36.208Z,80.80
2022-10-13T15:21:03.005Z,80.80
2022-10-13T15:23:29.707Z,80.80
2022-10-13T15:25:59.005Z,80.80
2022-10-13T15:28:34.563Z,80.80
2022-10-13T15:31:01.396Z,80.80
2022-10-13T15:33:29.586Z,80.90
2022-10-13T15:35:57.161Z,80.80
2022-10-13T15:38:24.511Z,80.80
2022-10-13T15:40:51.310Z,80.80
2022-10-13T15:43:18.565Z,81.00
2022-10-13T15:45:55.585Z,80.90
2022-10-13T15:48:22.401Z,80.90
2022-10-13T15:50:49.246Z,81.00
2022-10-13T15:53:15.913Z,81.00
2022-10-13T15:55:42.727Z,81.00
2022-10-13T15:58:13.546Z,81.00
2022-10-13T16:00:41.519Z,81.90
2022-10-13T16:03:13.117Z,81.10
2022-10-13T16:05:44.265Z,81.20
2022-10-13T16:08:11.513Z,82.10
2022-10-13T16:10:43.032Z,81.20
2022-10-13T16:13:13.591Z,81.20
2022-10-13T16:15:40.390Z,81.20
2022-10-13T16:18:08.001Z,81.30
2022-10-13T16:20:37.688Z,81.30
2022-10-13T16:23:05.095Z,81.30
2022-10-13T16:25:32.112Z,81.30
2022-10-13T16:27:59.472Z,81.30
2022-10-13T16:30:26.596Z,81.40
2022-10-13T16:32:53.366Z,81.30
2022-10-13T16:35:20.150Z,81.30
2022-10-13T16:37:46.855Z,81.40
2022-10-13T16:40:13.529Z,81.40
2022-10-13T16:42:40.349Z,81.40
2022-10-13T16:45:07.527Z,81.50
2022-10-13T16:47:34.274Z,81.40
2022-10-13T16:50:01.011Z,81.50
2022-10-13T16:52:27.734Z,81.60
2022-10-13T16:54:54.484Z,81.60
2022-10-13T16:57:21.420Z,81.60
2022-10-13T16:59:48.284Z,81.80
2022-10-13T17:02:15.502Z,81.90
2022-10-13T17:04:43.057Z,81.90
2022-10-13T17:07:09.957Z,81.90
2022-10-13T17:09:36.679Z,82.00
2022-10-13T17:12:04.407Z,82.10
2022-10-13T17:14:31.326Z,82.10
2022-10-13T17:16:58.353Z,82.10
2022-10-13T17:19:25.425Z,82.20
2022-10-13T17:21:52.166Z,82.20
2022-10-13T17:24:19.174Z,82.20
2022-10-13T17:26:45.931Z,82.30
2022-10-13T17:29:12.667Z,82.40
2022-10-13T17:31:39.334Z,82.40
2022-10-13T17:34:06.422Z,82.40
2022-10-13T17:36:34.262Z,82.40
2022-10-13T17:39:09.147Z,82.30
2022-10-13T17:41:36.923Z,82.20
2022-10-13T17:44:03.997Z,82.30
2022-10-13T17:46:37.286Z,82.20
2022-10-13T17:49:05.500Z,82.20
2022-10-13T17:51:32.205Z,82.30
2022-10-13T17:53:59.903Z,82.30
2022-10-13T17:56:27.700Z,82.30
2022-10-13T17:58:55.091Z,82.40
2022-10-13T18:01:28.329Z,82.50
2022-10-13T18:03:57.993Z,82.60
2022-10-13T18:06:25.200Z,82.60
2022-10-13T18:08:52.364Z,82.70
2022-10-13T18:11:22.029Z,82.80
2022-10-13T18:13:49.171Z,82.90
2022-10-13T18:16:21.478Z,83.00
2022-10-13T18:18:50.098Z,83.00
2022-10-13T18:21:19.252Z,83.00
2022-10-13T18:23:46.579Z,83.00
2022-10-13T18:26:15.973Z,83.10
2022-10-13T18:28:44.367Z,83.10
2022-10-13T18:31:13.815Z,83.00
2022-10-13T18:33:41.490Z,83.10
2022-10-13T18:36:19.812Z,83.10
2022-10-13T18:38:50.693Z,83.20
2022-10-13T18:41:18.580Z,83.10
2022-10-13T18:43:45.318Z,84.00
2022-10-13T18:46:12.150Z,83.30
2022-10-13T18:48:38.952Z,83.30
2022-10-13T18:51:11.239Z,83.20
2022-10-13T18:53:40.337Z,83.30
2022-10-13T18:56:19.191Z,83.30
2022-10-13T18:58:47.641Z,83.30
2022-10-13T19:01:18.341Z,83.30
2022-10-13T19:03:45.546Z,83.40
2022-10-13T19:06:14.623Z,83.50
2022-10-13T19:08:42.483Z,83.50
2022-10-13T19:11:18.764Z,83.50
2022-10-13T19:13:46.805Z,83.50
2022-10-13T19:16:16.695Z,83.50
2022-10-13T19:18:43.638Z,83.40
2022-10-13T19:21:11.839Z,83.30
2022-10-13T19:23:39.502Z,83.10
2022-10-13T19:26:17.913Z,83.20
2022-10-13T19:28:45.159Z,83.20
2022-10-13T19:31:21.082Z,83.30
2022-10-13T19:33:50.263Z,83.30
2022-10-13T19:36:27.094Z,83.30
2022-10-13T19:38:54.988Z,83.20
2022-10-13T19:41:22.198Z,83.10
2022-10-13T19:43:49.972Z,82.90
2022-10-13T19:46:16.981Z,82.90
2022-10-13T19:48:44.810Z,82.80
2022-10-13T19:51:12.121Z,82.70
2022-10-13T19:53:39.771Z,82.70
2022-10-13T19:56:07.378Z,82.80
2022-10-13T19:58:34.800Z,82.80
2022-10-13T20:01:04.012Z,82.90
2022-10-13T20:03:30.881Z,82.80
2022-10-13T20:05:57.655Z,82.90
2022-10-13T20:08:24.406Z,82.90
2022-10-13T20:10:51.096Z,83.00
2022-10-13T20:13:17.825Z,83.00
2022-10-13T20:15:44.611Z,83.00
2022-10-13T20:18:13.097Z,83.00
2022-10-13T20:20:41.472Z,83.00
2022-10-13T20:23:09.149Z,83.10
2022-10-13T20:25:37.949Z,83.20
2022-10-13T20:28:05.709Z,83.20
2022-10-13T20:30:33.318Z,83.30
2022-10-13T20:33:00.249Z,83.30
2022-10-13T20:35:27.057Z,83.30
2022-10-13T20:37:53.737Z,83.40
2022-10-13T20:40:20.429Z,83.40
2022-10-13T20:42:53.611Z,83.30
2022-10-13T20:45:20.663Z,83.30
2022-10-13T20:47:48.686Z,83.30
2022-10-13T20:50:15.726Z,83.30
2022-10-13T20:52:42.490Z,83.20
2022-10-13T20:55:09.956Z,83.30
2022-10-13T20:57:36.621Z,83.30
2022-10-13T21:00:05.264Z,83.30
2022-10-13T21:02:32.106Z,83.30
2022-10-13T21:04:58.813Z,84.00
2022-10-13T21:07:25.586Z,83.10
2022-10-13T21:09:54.011Z,83.10
2022-10-13T21:12:21.380Z,83.10
2022-10-13T21:14:48.101Z,83.90
2022-10-13T21:17:14.909Z,83.20
2022-10-13T21:19:41.589Z,83.20
2022-10-13T21:22:08.257Z,83.20
2022-10-13T21:24:34.986Z,83.20
2022-10-13T21:27:01.763Z,83.20
2022-10-13T21:29:28.551Z,83.20
2022-10-13T21:31:55.282Z,83.40
2022-10-13T21:34:21.978Z,83.40
2022-10-13T21:36:48.788Z,83.50
2022-10-13T21:39:15.563Z,83.60
2022-10-13T21:41:42.314Z,83.70
2022-10-13T21:44:13.774Z,83.60
2022-10-13T21:46:40.745Z,83.70
2022-10-13T21:49:07.431Z,83.70
2022-10-13T21:51:37.027Z,83.70
2022-10-13T21:54:06.237Z,83.70
2022-10-13T21:56:34.004Z,83.70
2022-10-13T21:59:01.530Z,83.80
2022-10-13T22:01:28.724Z,83.80
2022-10-13T22:03:58.012Z,83.90
2022-10-13T22:06:25.393Z,84.00
2022-10-13T22:08:53.420Z,84.00
2022-10-13T22:11:21.576Z,84.00
2022-10-13T22:13:48.238Z,84.00
2022-10-13T22:16:18.687Z,84.10
2022-10-13T22:18:45.348Z,84.10
2022-10-13T22:21:18.173Z,84.20
2022-10-13T22:23:45.939Z,84.20
2022-10-13T22:26:13.694Z,84.10
2022-10-13T22:28:40.908Z,84.10
2022-10-13T22:31:10.577Z,84.00
2022-10-13T22:33:39.286Z,84.00
2022-10-13T22:36:25.597Z,84.00
2022-10-13T22:38:57.663Z,84.00
2022-10-13T22:41:24.572Z,84.00
2022-10-13T22:43:56.558Z,84.00
2022-10-13T22:46:25.809Z,83.90
2022-10-13T22:48:52.657Z,83.90
2022-10-13T22:51:21.841Z,83.90
2022-10-13T22:53:49.813Z,84.00
2022-10-13T22:56:28.179Z,84.00
2022-10-13T22:58:57.691Z,83.90
2022-10-13T23:01:25.325Z,83.90
2022-10-13T23:03:55.973Z,83.90
2022-10-13T23:06:25.454Z,84.00
2022-10-13T23:08:52.769Z,84.00
2022-10-13T23:11:19.876Z,84.00
2022-10-13T23:13:47.258Z,83.90
2022-10-13T23:16:19.573Z,83.90
2022-10-13T23:18:46.887Z,83.90
2022-10-13T23:21:17.063Z,83.90
2022-10-13T23:23:45.412Z,83.90
2022-10-13T23:26:16.938Z,83.90
2022-10-13T23:28:44.500Z,84.00
2022-10-13T23:31:13.724Z,84.00
2022-10-13T23:33:40.692Z,83.90
2022-10-13T23:36:08.206Z,84.10
2022-10-13T23:38:35.043Z,84.10
2022-10-13T23:41:06.296Z,84.10
2022-10-13T23:43:33.191Z,84.20
2022-10-13T23:46:00.097Z,84.20
2022-10-13T23:48:27.454Z,84.20
2022-10-13T23:50:54.501Z,84.40
2022-10-13T23:53:21.548Z,84.40
2022-10-13T23:55:48.584Z,84.50
2022-10-13T23:58:15.272Z,84.40
